Noatak Airport Noatak US
ICAO: PAWN
IATA:
Category: Medium
Scheduled Services:

Elevation: 88 ft
TransAlt. 18000 ft.

Airport Communications:
AWOS 3:135.75
ANCHORAGE CNTR:119.2
KOTZEBUE RDO:122.4
CTAF/UNICOM:122.8

PAWN Zoom In..

Runways:

(A) RW 01 length 3992 ft width 60 ft
---- / hdg 7

(B) RW 19 length 3992 ft width 60 ft
---- / hdg 187

Location; PAWN
Day. 19 / Time. 20.56 Zulu
* Altimeter: 30.19
* Temperature: 09° c. 48.2°f.
* Wind from: 320° Speed 04 kn.
Dewpoint: 03° c.
Visibility: 10 Statute Miles.
Clouds: Clear (automated report).

PAWN 192056Z AUTO 32004KT 10SM CLR 09/03 A3019 RMK AO2 SLP239 60000 T00890033 53015


Wind From 320°
Speed 04 kn.

 
 
jpsmedia.com for Web Design worldairports.se 2018   terms of use